Ana Sayfa
METAR-TAF:

METAR-TAF

Havaalanları :

Odessa-Schlemeyer Field

Odessa, Teksas, Amerika Birleşik Devletleri

Enlem: 31-55-17N, Boylam: 102-23-30W, yükseklik: 914 m

Güncel hava durumu gözlemi

Rapor saat 00:53 UTC de 53 dakika önce yapıldı.
Rüzgar batıdan 11 kt
Sıcaklık 36°C
Nem 10%
Basınç 1009 hPa
Görüş mesafesi: 16.1 km
Açık gökyüzü

METAR: KODO 200053Z AUTO 28011KT 10SM CLR 36/M01 A2979 RMK AO2 SLP034 T03611011

Saat: 20:46 (01:46 UTC)


TAF: eksik

4.000'den fazla havaalanı için hava durumu gözlemleri ve tahminleri (METAR ve TAF raporları).

Kullanılabilir istasyonlar harita üzerinde sarı ve kırmızı noktalarla gösterilir.

İstasyonun adını görmek için fareyi noktanın üzerinde gezdirin.

Sonrasında hava gözlem ve tahminlerini görmek için tıklayın.

Haritayı değiştirmek için: yaklaştırmak için siyah artı işaretli yeşil düğmeye ve uzaklaştırmak için de eksi işaretli düğmeye hızla tıklayın; bitişik haritalar için yeşil okları kullanın.


METAR-TAF: